Latest Weather Observations for Flinders Reef

IDQ60801

Issued at 3:32 am EST Saturday 30 July 2016 (issued every 30 minutes, with the page automatically refreshed every 10 minutes)

About weather observations | Map of weather stations | Latest weather observations for QLD | Other Formats
Station Details ID: 200783 Name: FLINDERS REEF Lat: -17.72 Lon: 148.45 Height: 2.6 m
Data from the previous 72 hours. | See also: Recent months at Flinders Reef
Date/Time
EST
Temp
°C
App
Temp
°C
Dew
Point
°C
Rel
Hum
%
Delta-T
°C
Wind Press
QNH
hPa
Press
MSL
hPa
Rain since
9am
mm
Dir  Spd
km/h
Gust
km/h
Spd
kts
Gust
kts
30/03:30am 23.8 - - - - SE 41 48 22 26 1014.7 - -
30/03:24am 24.2 - - - - SE 41 44 22 24 1014.7 1014.6 -
30/03:00am 23.9 - - - - SSE 41 46 22 25 1014.7 - -
30/02:30am 24.0 - - - - SE 43 50 23 27 1015.0 - -
30/02:24am 24.1 - - - - SSE 43 - 23 - - 1014.9 -
30/02:00am 24.2 - - - - SSE 39 46 21 25 1015.2 - -
30/01:30am 24.0 - - - - SSE 39 48 21 26 1015.4 - -
30/01:24am 24.0 - - - - SE 39 - 21 - - 1015.4 -
30/01:00am 24.0 - - - - SSE 43 50 23 27 1015.7 - -
30/12:30am 24.1 - - - - SE 43 50 23 27 1016.0 - -
30/12:24am 24.2 - - - - SE 43 - 23 - - 1016.0 -
30/12:00am 24.2 - - - - SE 43 52 23 28 1016.1 - -
 
Date/Time
EST
Temp
°C
App
Temp
°C
Dew
Point
°C
Rel
Hum
%
Delta-T
°C
Wind Press
QNH
hPa
Press
MSL
hPa
Rain since
9am
mm
Dir  Spd
km/h
Gust
km/h
Spd
kts
Gust
kts
29/11:30pm 24.1 - - - - SSE 44 50 24 27 1016.2 - -
29/11:24pm 24.3 - - - - SSE 43 - 23 - - 1016.2 -
29/11:00pm 24.2 - - - - SE 43 50 23 27 1016.3 - -
29/10:30pm 24.0 - - - - SE 43 52 23 28 1016.6 - -
29/10:24pm 24.0 - - - - SE 44 - 24 - - 1016.5 -
29/10:00pm 24.3 - - - - SSE 43 50 23 27 1016.8 - -
29/09:30pm 24.3 - - - - SE 44 54 24 29 1016.7 - -
29/09:24pm 24.2 - - - - SE 44 - 24 - - 1016.5 -
29/09:00pm 24.2 - - - - SE 43 50 23 27 1016.7 - -
29/08:30pm 24.2 - - - - SE 46 54 25 29 1016.6 - -
29/08:24pm 24.1 - - - - SE 46 - 25 - - 1016.5 -
29/08:00pm 24.3 - - - - SE 46 56 25 30 1016.4 - -
29/07:30pm 24.2 - - - - SE 46 54 25 29 1016.2 - -
29/07:24pm 23.9 - - - - SE 46 - 25 - - 1015.9 -
29/07:00pm 24.1 - - - - SSE 44 54 24 29 1015.9 - -
29/06:30pm 24.2 - - - - SSE 46 54 25 29 1015.5 - -
29/06:24pm 24.2 - - - - SSE 46 - 25 - - 1015.3 -
29/06:00pm 24.0 - - - - SSE 46 54 25 29 1015.3 - -
29/05:30pm 24.2 - - - - SSE 44 52 24 28 1015.2 - -
29/05:24pm 23.9 - - - - SSE 44 - 24 - - 1015.1 -
29/05:00pm 23.7 - - - - SSE 43 50 23 27 1015.1 - -
29/04:30pm 24.0 - - - - SSE 44 52 24 28 1014.9 - -
29/04:24pm 23.9 - - - - SSE 43 - 23 - - 1014.8 -
29/04:00pm 23.8 - - - - SSE 44 54 24 29 1014.7 - -
29/03:30pm 24.0 - - - - SSE 44 52 24 28 1014.5 - -
29/03:24pm 23.8 - - - - SSE 46 - 25 - - 1014.4 -
29/03:00pm 23.9 - - - - SSE 44 52 24 28 1014.5 - -
29/02:30pm 23.8 - - - - SSE 44 52 24 28 1014.5 - -
29/02:24pm 23.7 - - - - SSE 46 - 25 - - 1014.4 -
29/02:00pm 24.0 - - - - SSE 44 52 24 28 1014.9 - -
29/01:30pm 23.9 - - - - SSE 44 50 24 27 1015.3 - -
29/01:24pm 23.8 - - - - SSE 44 - 24 - - 1015.2 -
29/01:00pm 23.6 - - - - SSE 44 52 24 28 1015.6 - -
29/12:30pm 23.8 - - - - SSE 46 54 25 29 1016.1 - -
29/12:24pm 23.6 - - - - SSE 44 - 24 - - 1016.1 -
29/12:00pm 23.8 - - - - SSE 44 54 24 29 1016.5 - -
29/11:30am 24.0 - - - - SSE 44 54 24 29 1017.0 - -
29/11:24am 23.8 - - - - SSE 44 - 24 - - 1017.0 -
29/11:00am 23.9 - - - - SSE 44 52 24 28 1017.4 - -
29/10:30am 23.6 - - - - SSE 44 52 24 28 1017.8 - -
29/10:24am 23.6 - - - - SSE 44 - 24 - - 1017.7 -
29/10:00am 23.6 - - - - SSE 44 54 24 29 1017.8 - -
29/09:30am 23.7 - - - - SSE 43 50 23 27 1018.0 - -
29/09:24am 23.4 - - - - SSE 43 - 23 - - 1017.8 -
29/09:00am 23.2 - - - - SSE 44 52 24 28 1017.9 - -
29/08:30am 23.0 - - - - SSE 44 52 24 28 1017.7 - -
29/08:24am 23.1 - - - - SSE 44 - 24 - - 1017.6 -
29/08:00am 23.3 - - - - SSE 43 50 23 27 1017.5 - -
29/07:30am 23.1 - - - - SSE 44 54 24 29 1017.3 - -
29/07:24am 22.9 - - - - SSE 44 - 24 - - 1017.1 -
29/07:00am 22.7 - - - - SSE 44 54 24 29 1017.0 - -
29/06:30am 23.1 - - - - SSE 46 57 25 31 1016.7 - -
29/06:24am 22.8 - - - - SSE 44 - 24 - - 1016.5 -
29/06:00am 23.0 - - - - SE 44 52 24 28 1016.3 - -
29/05:30am 22.8 - - - - SE 46 54 25 29 1016.1 - -
29/05:24am 22.7 - - - - SE 46 - 25 - - 1016.0 -
29/05:00am 23.0 - - - - SE 46 52 25 28 1016.2 - -
29/04:30am 22.7 - - - - SE 46 54 25 29 1016.1 - -
29/04:24am 22.8 - - - - SE 44 - 24 - - 1015.9 -
29/04:00am 23.0 - - - - SSE 46 54 25 29 1016.0 - -
29/03:30am 23.1 - - - - SE 44 50 24 27 1016.0 - -
29/03:24am 22.9 - - - - SSE 44 - 24 - - 1015.9 -
29/03:00am 23.1 - - - - SE 44 52 24 28 1016.0 - -
29/02:30am 22.6 - - - - SE 46 52 25 28 1016.1 - -
29/02:24am 22.9 - - - - SE 46 - 25 - - 1016.1 -
29/02:00am 22.9 - - - - SE 46 54 25 29 1016.5 - -
29/01:30am 23.1 - - - - SE 46 56 25 30 1016.9 - -
29/01:24am 23.1 - - - - SE 46 - 25 - - 1016.8 -
29/01:00am 23.2 - - - - SE 50 59 27 32 1017.0 - -
29/12:30am 23.0 - - - - SE 52 61 28 33 1017.1 - -
29/12:24am 23.0 - - - - SE 50 - 27 - - 1017.3 -
29/12:00am 23.3 - - - - SE 50 56 27 30 1017.5 - -
 
Date/Time
EST
Temp
°C
App
Temp
°C
Dew
Point
°C
Rel
Hum
%
Delta-T
°C
Wind Press
QNH
hPa
Press
MSL
hPa
Rain since
9am
mm
Dir  Spd
km/h
Gust
km/h
Spd
kts
Gust
kts
28/11:30pm 23.6 - - - - SE 46 54 25 29 1018.0 - -
28/11:24pm 23.1 - - - - SE 46 - 25 - - 1018.0 -
28/11:00pm 23.3 - - - - SE 48 57 26 31 1018.1 - -
28/10:30pm 23.5 - - - - SE 44 54 24 29 1018.3 - -
28/10:24pm 23.5 - - - - SE 46 - 25 - - 1018.3 -
28/10:00pm 23.4 - - - - SE 48 56 26 30 1018.6 - -
28/09:30pm 23.2 - - - - SE 46 54 25 29 1018.6 - -
28/09:24pm 23.4 - - - - SE 44 - 24 - - 1018.7 -
28/09:00pm 23.3 - - - - ESE 50 56 27 30 1018.6 - -
28/08:30pm 23.3 - - - - SE 48 56 26 30 1018.4 - -
28/08:24pm 23.4 - - - - SE 48 - 26 - - 1018.5 -
28/08:00pm 23.4 - - - - SE 48 57 26 31 1018.1 - -
28/07:30pm 23.3 - - - - SE 46 56 25 30 1018.0 - -
28/07:24pm 23.7 - - - - SE 46 - 25 - - 1018.0 -
28/07:00pm 23.6 - - - - SE 50 57 27 31 1017.6 - -
28/06:30pm 23.6 - - - - SE 48 57 26 31 1017.1 - -
28/06:24pm 23.8 - - - - SE 48 - 26 - - 1017.1 -
28/06:00pm 23.7 - - - - SE 48 56 26 30 1017.2 - -
28/05:30pm 23.6 - - - - SE 48 56 26 30 1016.9 - -
28/05:24pm 23.7 - - - - SE 48 - 26 - - 1016.8 -
28/05:00pm 23.7 - - - - SSE 48 56 26 30 1016.9 - -
28/04:30pm 23.7 - - - - SSE 46 54 25 29 1016.7 - -
28/04:24pm 24.1 - - - - SSE 46 - 25 - - 1016.5 -
28/04:00pm 23.7 - - - - SE 46 57 25 31 1016.2 - -
28/03:30pm 24.1 - - - - SE 46 56 25 30 1015.9 - -
28/03:24pm 24.0 - - - - SE 44 - 24 - - 1015.8 -
28/03:00pm 24.0 - - - - SE 44 54 24 29 1016.0 - -
28/02:30pm 23.9 - - - - SE 44 52 24 28 1016.2 - -
28/02:24pm 23.6 - - - - SSE 44 - 24 - - 1016.1 -
28/02:00pm 23.5 - - - - SSE 44 54 24 29 1016.3 - -
28/01:30pm 23.6 - - - - SE 44 54 24 29 1016.7 - -
28/01:24pm 23.6 - - - - SSE 44 - 24 - - 1016.7 -
28/01:00pm 23.7 - - - - SE 44 54 24 29 1017.0 - -
28/12:30pm 23.6 - - - - SSE 46 54 25 29 1017.4 - -
28/12:24pm 23.6 - - - - SSE 46 - 25 - - 1017.3 -
28/12:00pm 24.0 - - - - SSE 46 54 25 29 1017.8 - -
28/11:30am 23.7 - - - - SSE 46 56 25 30 1018.0 - -
28/11:24am 23.6 - - - - SE 46 - 25 - - 1018.1 -
28/11:00am 23.8 - - - - SE 48 57 26 31 1018.3 - -
28/10:30am 23.8 - - - - SSE 50 57 27 31 1018.5 - -
28/10:24am 23.6 - - - - SSE 48 - 26 - - 1018.3 -
28/10:00am 23.7 - - - - SSE 48 56 26 30 1018.8 - -
28/09:30am 23.7 - - - - SSE 48 56 26 30 1019.0 - -
28/09:24am 24.0 - - - - SSE 46 - 25 - - 1018.9 -
28/09:00am 24.1 - - - - SSE 48 56 26 30 1019.0 - -
28/08:30am 24.1 - - - - SSE 46 56 25 30 1018.8 - -
28/08:24am 24.1 - - - - SSE 48 - 26 - - 1018.7 -
28/08:00am 24.1 - - - - SSE 50 57 27 31 1018.3 - -
28/07:30am 24.0 - - - - SE 46 54 25 29 1018.1 - -
28/07:24am 24.2 - - - - SSE 46 - 25 - - 1018.1 -
28/07:00am 24.0 - - - - SSE 48 57 26 31 1017.8 - -
28/06:30am 24.0 - - - - SSE 46 54 25 29 1017.5 - -
28/06:24am 24.1 - - - - SSE 48 - 26 - - 1017.5 -
28/06:00am 24.1 - - - - SSE 50 57 27 31 1017.4 - -
28/05:30am 24.3 - - - - SSE 46 56 25 30 1017.0 - -
28/05:24am 24.4 - - - - SSE 50 - 27 - - 1016.8 -
28/05:00am 24.4 - - - - SSE 50 56 27 30 1016.7 - -
28/04:30am 24.3 - - - - SSE 48 57 26 31 1016.6 - -
28/04:24am 24.4 - - - - SSE 48 - 26 - - 1016.6 -
28/04:00am 24.2 - - - - SSE 44 54 24 29 1017.0 - -
28/03:30am 24.2 - - - - SSE 43 48 23 26 1017.1 - -
28/03:24am 24.0 - - - - SSE 43 - 23 - - 1016.9 -
28/03:00am 24.2 - - - - SSE 43 48 23 26 1016.8 - -
28/02:30am 24.2 - - - - SE 41 46 22 25 1016.9 - -
28/02:24am 24.2 - - - - SE 43 - 23 - - 1016.8 -
28/02:00am 24.2 - - - - SSE 43 48 23 26 1017.0 - -
28/01:30am 24.6 - - - - SSE 43 48 23 26 1017.3 - -
28/01:24am 24.3 - - - - SSE 43 - 23 - - 1017.2 -
28/01:00am 24.3 - - - - SSE 41 46 22 25 1017.5 - -
28/12:30am 24.3 - - - - SE 41 48 22 26 1017.5 - -
28/12:24am 24.5 - - - - SSE 41 - 22 - - 1017.5 -
28/12:00am 24.5 - - - - SE 41 48 22 26 1017.5 - -
 
Date/Time
EST
Temp
°C
App
Temp
°C
Dew
Point
°C
Rel
Hum
%
Delta-T
°C
Wind Press
QNH
hPa
Press
MSL
hPa
Rain since
9am
mm
Dir  Spd
km/h
Gust
km/h
Spd
kts
Gust
kts
27/11:30pm 24.6 - - - - SSE 43 52 23 28 1017.4 - -
27/11:24pm 24.8 - - - - SE 43 - 23 - - 1017.3 -
27/11:00pm 24.6 - - - - SE 43 48 23 26 1017.6 - -
27/10:30pm 24.6 - - - - SE 43 46 23 25 1017.7 - -
27/10:24pm 24.5 - - - - SE 39 - 21 - - 1017.6 -
27/10:00pm 24.9 - - - - SE 39 44 21 24 1017.8 - -
27/09:30pm 24.6 - - - - SE 37 44 20 24 1017.8 - -
27/09:24pm 25.0 - - - - SE 39 - 21 - - 1017.7 -
27/09:00pm 24.9 - - - - SE 37 44 20 24 1017.8 - -
27/08:30pm 24.8 - - - - SE 39 43 21 23 1017.4 - -
27/08:24pm 24.8 - - - - SE 37 - 20 - - 1017.2 -
27/08:00pm 24.8 - - - - SE 37 43 20 23 1016.9 - -
27/07:30pm 24.6 - - - - SE 35 43 19 23 1016.7 - -
27/07:24pm 24.9 - - - - SE 35 - 19 - - 1016.6 -
27/07:00pm 24.8 - - - - SE 39 44 21 24 1016.5 - -
27/06:30pm 24.9 - - - - SE 37 43 20 23 1016.3 - -
27/06:24pm 24.9 - - - - SE 37 - 20 - - 1016.1 -
27/06:00pm 24.8 - - - - SE 39 44 21 24 1016.1 - -
27/05:30pm 24.9 - - - - SSE 39 46 21 25 1015.7 - -
27/05:24pm 24.8 - - - - SE 39 - 21 - - 1015.5 -
27/05:00pm 25.0 - - - - SE 37 43 20 23 1015.5 - -
27/04:30pm 24.9 - - - - SSE 39 46 21 25 1015.2 - -
27/04:24pm 24.8 - - - - SSE 37 - 20 - - 1015.1 -
27/04:00pm 24.8 - - - - SSE 37 43 20 23 1014.9 - -
27/03:30pm 24.9 - - - - SSE 37 43 20 23 1014.5 - -
27/03:24pm 25.0 - - - - SSE 37 - 20 - - 1014.5 -
27/03:00pm 24.7 - - - - SE 35 43 19 23 1014.4 - -
27/02:30pm 25.1 - - - - SE 37 41 20 22 1014.5 - -
27/02:24pm 24.7 - - - - SE 37 - 20 - - 1014.5 -
27/02:00pm 24.8 - - - - SE 37 41 20 22 1014.8 - -
27/01:30pm 24.9 - - - - SE 37 43 20 23 1014.9 - -
27/01:24pm 24.8 - - - - SE 35 - 19 - - 1014.9 -
27/01:00pm 24.9 - - - - SE 37 41 20 22 1015.1 - -
27/12:30pm 24.8 - - - - SE 37 43 20 23 1015.4 - -
27/12:24pm 24.9 - - - - SE 37 - 20 - - 1015.4 -
27/12:00pm 25.1 - - - - SE 37 43 20 23 1015.9 - -
27/11:30am 24.9 - - - - SE 39 46 21 25 1016.0 - -
27/11:24am 25.1 - - - - SE 39 - 21 - - 1016.0 -
27/11:00am 24.6 - - - - SE 39 43 21 23 1016.3 - -
27/10:30am 24.6 - - - - SE 37 44 20 24 1016.6 - -
27/10:24am 24.8 - - - - SE 37 - 20 - - 1016.6 -
27/10:00am 24.5 - - - - SE 41 44 22 24 1016.7 - -
27/09:30am 24.3 - - - - SE 44 52 24 28 1016.7 - -
27/09:24am 24.8 - - - - SE 43 - 23 - - 1016.6 -
27/09:00am 24.8 - - - - SE 41 46 22 25 1016.7 - -
27/08:30am 24.3 - - - - SE 39 44 21 24 1016.3 - -
27/08:24am 24.4 - - - - SE 41 - 22 - - 1016.3 -
27/08:00am 24.5 - - - - SE 39 46 21 25 1016.2 - -
27/07:30am 24.9 - - - - SE 39 43 21 23 1016.0 - -
27/07:24am 24.8 - - - - SE 37 - 20 - - 1015.9 -
27/07:00am 24.9 - - - - SE 35 39 19 21 1015.8 - -
27/06:30am 24.4 - - - - SE 33 41 18 22 1015.5 - -
27/06:24am 24.8 - - - - SE 35 - 19 - - 1015.4 -
27/06:00am 24.8 - - - - SE 35 39 19 21 1015.4 - -
27/05:30am 24.6 - - - - SE 33 39 18 21 1015.1 - -
27/05:24am 24.8 - - - - SE 33 - 18 - - 1014.9 -
27/05:00am 24.8 - - - - ESE 33 39 18 21 1015.0 - -
27/04:30am 25.1 - - - - ESE 32 37 17 20 1014.9 - -
27/04:24am 25.0 - - - - ESE 33 - 18 - - 1014.8 -
27/04:00am 25.0 - - - - ESE 33 39 18 21 1014.7 - -

Other Formats:

Comma delimited format used in spreadsheet applications
http://www.bom.gov.au/fwo/IDQ60801/IDQ60801.94290.axf

JavaScript Object Notation format (JSON) in row-major order
http://www.bom.gov.au/fwo/IDQ60801/IDQ60801.94290.json